sensor_id;sensor_type;location;lat;lon;timestamp;pressure;altitude;pressure_sealevel;temperature;humidity
59767;BME280;46248;58.364;25.582;2023-03-26T00:00:30;98851.41;;;6.01;100.00
59767;BME280;46248;58.364;25.582;2023-03-26T00:03:55;98850.00;;;5.95;100.00
59767;BME280;46248;58.364;25.582;2023-03-26T00:07:18;98861.78;;;6.01;100.00
59767;BME280;46248;58.364;25.582;2023-03-26T00:10:41;98843.03;;;5.95;100.00
59767;BME280;46248;58.364;25.582;2023-03-26T00:14:03;98844.91;;;5.93;100.00
59767;BME280;46248;58.364;25.582;2023-03-26T00:17:25;98846.56;;;5.94;100.00
59767;BME280;46248;58.364;25.582;2023-03-26T00:20:49;98858.75;;;5.92;100.00
59767;BME280;46248;58.364;25.582;2023-03-26T00:24:12;98851.97;;;5.90;100.00
59767;BME280;46248;58.364;25.582;2023-03-26T00:27:35;98851.91;;;5.91;100.00
59767;BME280;46248;58.364;25.582;2023-03-26T00:31:01;98846.78;;;5.90;100.00
59767;BME280;46248;58.364;25.582;2023-03-26T00:34:23;98828.41;;;5.79;100.00
59767;BME280;46248;58.364;25.582;2023-03-26T00:37:47;98832.31;;;5.86;100.00
59767;BME280;46248;58.364;25.582;2023-03-26T00:41:13;98836.69;;;5.85;100.00
59767;BME280;46248;58.364;25.582;2023-03-26T00:44:42;98836.88;;;5.82;100.00
59767;BME280;46248;58.364;25.582;2023-03-26T00:48:04;98843.91;;;5.80;100.00
59767;BME280;46248;58.364;25.582;2023-03-26T00:51:27;98846.50;;;5.80;100.00
59767;BME280;46248;58.364;25.582;2023-03-26T00:54:51;98847.44;;;5.79;100.00
59767;BME280;46248;58.364;25.582;2023-03-26T00:58:14;98853.47;;;5.80;100.00
59767;BME280;46248;58.364;25.582;2023-03-26T01:01:36;98849.91;;;5.81;100.00
59767;BME280;46248;58.364;25.582;2023-03-26T01:04:59;98849.84;;;5.82;100.00
59767;BME280;46248;58.364;25.582;2023-03-26T01:08:26;98840.75;;;5.75;100.00
59767;BME280;46248;58.364;25.582;2023-03-26T01:11:52;98834.34;;;5.81;100.00
59767;BME280;46248;58.364;25.582;2023-03-26T01:15:14;98836.88;;;5.82;100.00
59767;BME280;46248;58.364;25.582;2023-03-26T01:18:36;98848.91;;;5.83;100.00
59767;BME280;46248;58.364;25.582;2023-03-26T01:22:00;98849.03;;;5.82;100.00
59767;BME280;46248;58.364;25.582;2023-03-26T01:25:28;98838.22;;;5.73;100.00
59767;BME280;46248;58.364;25.582;2023-03-26T01:28:55;98845.78;;;5.78;100.00
59767;BME280;46248;58.364;25.582;2023-03-26T01:32:34;98835.28;;;5.80;100.00
59767;BME280;46248;58.364;25.582;2023-03-26T01:36:04;98832.84;;;5.77;100.00
59767;BME280;46248;58.364;25.582;2023-03-26T01:39:31;98832.38;;;5.70;100.00
59767;BME280;46248;58.364;25.582;2023-03-26T01:43:04;98844.91;;;5.78;100.00
59767;BME280;46248;58.364;25.582;2023-03-26T01:46:31;98849.09;;;5.80;100.00
59767;BME280;46248;58.364;25.582;2023-03-26T01:49:55;98838.16;;;5.75;100.00
59767;BME280;46248;58.364;25.582;2023-03-26T01:53:18;98825.00;;;5.78;100.00
59767;BME280;46248;58.364;25.582;2023-03-26T01:56:46;98835.19;;;5.81;100.00
59767;BME280;46248;58.364;25.582;2023-03-26T02:00:18;98836.22;;;5.79;100.00
59767;BME280;46248;58.364;25.582;2023-03-26T02:03:46;98847.50;;;5.78;100.00
59767;BME280;46248;58.364;25.582;2023-03-26T02:07:14;98842.41;;;5.76;100.00
59767;BME280;46248;58.364;25.582;2023-03-26T02:10:42;98841.59;;;5.76;100.00
59767;BME280;46248;58.364;25.582;2023-03-26T02:14:06;98841.00;;;5.70;100.00
59767;BME280;46248;58.364;25.582;2023-03-26T02:17:30;98840.06;;;5.71;100.00
59767;BME280;46248;58.364;25.582;2023-03-26T02:20:52;98845.09;;;5.74;100.00
59767;BME280;46248;58.364;25.582;2023-03-26T02:24:15;98845.00;;;5.76;100.00
59767;BME280;46248;58.364;25.582;2023-03-26T02:31:05;98838.16;;;5.75;100.00
59767;BME280;46248;58.364;25.582;2023-03-26T02:34:30;98837.28;;;5.74;100.00
59767;BME280;46248;58.364;25.582;2023-03-26T02:37:53;98835.75;;;5.72;100.00
59767;BME280;46248;58.364;25.582;2023-03-26T02:41:15;98839.34;;;5.69;100.00
59767;BME280;46248;58.364;25.582;2023-03-26T02:44:37;98832.75;;;5.64;100.00
59767;BME280;46248;58.364;25.582;2023-03-26T02:48:00;98839.53;;;5.66;100.00
59767;BME280;46248;58.364;25.582;2023-03-26T02:51:23;98831.97;;;5.62;100.00
59767;BME280;46248;58.364;25.582;2023-03-26T02:54:46;98832.09;;;5.60;100.00
59767;BME280;46248;58.364;25.582;2023-03-26T02:58:09;98833.75;;;5.61;100.00
59767;BME280;46248;58.364;25.582;2023-03-26T03:01:32;98832.91;;;5.61;100.00
59767;BME280;46248;58.364;25.582;2023-03-26T03:04:55;98834.50;;;5.63;100.00
59767;BME280;46248;58.364;25.582;2023-03-26T03:08:24;98835.34;;;5.64;100.00
59767;BME280;46248;58.364;25.582;2023-03-26T03:11:48;98833.69;;;5.63;100.00
59767;BME280;46248;58.364;25.582;2023-03-26T03:15:11;98789.28;;;5.37;100.00
59767;BME280;46248;58.364;25.582;2023-03-26T03:18:33;98827.06;;;5.57;100.00
59767;BME280;46248;58.364;25.582;2023-03-26T03:21:55;98821.31;;;5.52;100.00
59767;BME280;46248;58.364;25.582;2023-03-26T03:25:19;98827.31;;;5.53;100.00
59767;BME280;46248;58.364;25.582;2023-03-26T03:28:42;98818.94;;;5.47;100.00
59767;BME280;46248;58.364;25.582;2023-03-26T03:32:04;98826.84;;;5.46;100.00
59767;BME280;46248;58.364;25.582;2023-03-26T03:35:26;98830.28;;;5.46;100.00
59767;BME280;46248;58.364;25.582;2023-03-26T03:38:49;98832.97;;;5.45;100.00
59767;BME280;46248;58.364;25.582;2023-03-26T03:45:59;98828.50;;;5.47;100.00
59767;BME280;46248;58.364;25.582;2023-03-26T03:49:21;98832.03;;;5.46;100.00
59767;BME280;46248;58.364;25.582;2023-03-26T03:52:43;98833.69;;;5.47;100.00
59767;BME280;46248;58.364;25.582;2023-03-26T03:56:06;98830.38;;;5.45;100.00
59767;BME280;46248;58.364;25.582;2023-03-26T03:59:29;98827.09;;;5.41;100.00
59767;BME280;46248;58.364;25.582;2023-03-26T04:02:52;98829.50;;;5.44;100.00
59767;BME280;46248;58.364;25.582;2023-03-26T04:06:15;98814.56;;;5.34;100.00
59767;BME280;46248;58.364;25.582;2023-03-26T04:09:43;98833.88;;;5.44;100.00
59767;BME280;46248;58.364;25.582;2023-03-26T04:13:05;98831.28;;;5.44;100.00
59767;BME280;46248;58.364;25.582;2023-03-26T04:16:27;98821.72;;;5.44;100.00
59767;BME280;46248;58.364;25.582;2023-03-26T04:19:51;98822.59;;;5.45;100.00
59767;BME280;46248;58.364;25.582;2023-03-26T04:23:15;98821.56;;;5.47;100.00
59767;BME280;46248;58.364;25.582;2023-03-26T04:26:37;98807.44;;;5.37;100.00
59767;BME280;46248;58.364;25.582;2023-03-26T04:30:00;98802.25;;;5.37;100.00
59767;BME280;46248;58.364;25.582;2023-03-26T04:33:23;98820.00;;;5.45;100.00
59767;BME280;46248;58.364;25.582;2023-03-26T04:36:46;98820.00;;;5.45;100.00
59767;BME280;46248;58.364;25.582;2023-03-26T04:40:12;98818.47;;;5.41;100.00
59767;BME280;46248;58.364;25.582;2023-03-26T04:43:34;98821.91;;;5.41;100.00
59767;BME280;46248;58.364;25.582;2023-03-26T04:47:01;98818.41;;;5.42;100.00
59767;BME280;46248;58.364;25.582;2023-03-26T04:50:24;98825.25;;;5.43;100.00
59767;BME280;46248;58.364;25.582;2023-03-26T04:53:51;98807.25;;;5.40;100.00
59767;BME280;46248;58.364;25.582;2023-03-26T04:57:18;98805.44;;;5.42;100.00
59767;BME280;46248;58.364;25.582;2023-03-26T05:00:42;98811.34;;;5.44;100.00
59767;BME280;46248;58.364;25.582;2023-03-26T05:04:04;98814.88;;;5.43;100.00
59767;BME280;46248;58.364;25.582;2023-03-26T05:07:26;98805.59;;;5.39;100.00
59767;BME280;46248;58.364;25.582;2023-03-26T05:10:49;98818.22;;;5.45;100.00
59767;BME280;46248;58.364;25.582;2023-03-26T05:14:11;98808.03;;;5.42;100.00
59767;BME280;46248;58.364;25.582;2023-03-26T05:17:33;98816.53;;;5.44;100.00
59767;BME280;46248;58.364;25.582;2023-03-26T05:21:01;98814.88;;;5.43;100.00
59767;BME280;46248;58.364;25.582;2023-03-26T05:24:23;98818.22;;;5.45;100.00
59767;BME280;46248;58.364;25.582;2023-03-26T05:27:48;98812.09;;;5.46;100.00
59767;BME280;46248;58.364;25.582;2023-03-26T05:31:10;98812.03;;;5.48;100.00
59767;BME280;46248;58.364;25.582;2023-03-26T05:34:32;98821.47;;;5.49;100.00
59767;BME280;46248;58.364;25.582;2023-03-26T05:37:54;98818.69;;;5.52;100.00
59767;BME280;46248;58.364;25.582;2023-03-26T05:41:17;98816.28;;;5.49;100.00
59767;BME280;46248;58.364;25.582;2023-03-26T05:44:41;98822.41;;;5.48;100.00
59767;BME280;46248;58.364;25.582;2023-03-26T05:48:03;98819.81;;;5.48;100.00
59767;BME280;46248;58.364;25.582;2023-03-26T05:51:25;98814.88;;;5.43;100.00
59767;BME280;46248;58.364;25.582;2023-03-26T05:54:47;98821.66;;;5.46;100.00
59767;BME280;46248;58.364;25.582;2023-03-26T05:58:10;98808.44;;;5.35;100.00
59767;BME280;46248;58.364;25.582;2023-03-26T06:01:34;98812.81;;;5.34;100.00
59767;BME280;46248;58.364;25.582;2023-03-26T06:04:56;98823.84;;;5.38;100.00
59767;BME280;46248;58.364;25.582;2023-03-26T06:08:18;98823.00;;;5.37;100.00
59767;BME280;46248;58.364;25.582;2023-03-26T06:11:40;98825.59;;;5.37;100.00
59767;BME280;46248;58.364;25.582;2023-03-26T06:15:02;98825.72;;;5.36;100.00
59767;BME280;46248;58.364;25.582;2023-03-26T06:18:25;98818.00;;;5.34;100.00
59767;BME280;46248;58.364;25.582;2023-03-26T06:21:48;98818.09;;;5.33;100.00
59767;BME280;46248;58.364;25.582;2023-03-26T06:25:09;98816.34;;;5.33;100.00
59767;BME280;46248;58.364;25.582;2023-03-26T06:28:32;98812.91;;;5.33;100.00
59767;BME280;46248;58.364;25.582;2023-03-26T06:31:54;98812.91;;;5.33;100.00
59767;BME280;46248;58.364;25.582;2023-03-26T06:35:30;98818.94;;;5.33;100.00
59767;BME280;46248;58.364;25.582;2023-03-26T06:38:52;98818.00;;;5.34;100.00
59767;BME280;46248;58.364;25.582;2023-03-26T06:42:13;98810.31;;;5.33;100.00
59767;BME280;46248;58.364;25.582;2023-03-26T06:45:36;98823.78;;;5.39;100.00
59767;BME280;46248;58.364;25.582;2023-03-26T06:48:57;98824.59;;;5.40;100.00
59767;BME280;46248;58.364;25.582;2023-03-26T06:52:21;98820.06;;;5.43;100.00
59767;BME280;46248;58.364;25.582;2023-03-26T06:55:43;98827.50;;;5.49;100.00
59767;BME280;46248;58.364;25.582;2023-03-26T06:59:05;98827.25;;;5.54;100.00
59767;BME280;46248;58.364;25.582;2023-03-26T07:02:27;98828.72;;;5.58;100.00
59767;BME280;46248;58.364;25.582;2023-03-26T07:05:49;98824.38;;;5.59;100.00
59767;BME280;46248;58.364;25.582;2023-03-26T07:09:13;98825.59;;;5.67;100.00
59767;BME280;46248;58.364;25.582;2023-03-26T07:12:35;98825.25;;;5.73;100.00
59767;BME280;46248;58.364;25.582;2023-03-26T07:15:57;98822.94;;;5.83;100.00
59767;BME280;46248;58.364;25.582;2023-03-26T07:19:19;98826.44;;;5.98;100.00
59767;BME280;46248;58.364;25.582;2023-03-26T07:22:41;98823.75;;;6.14;100.00
59767;BME280;46248;58.364;25.582;2023-03-26T07:26:13;98824.22;;;6.21;100.00
59767;BME280;46248;58.364;25.582;2023-03-26T07:29:45;98823.94;;;6.25;100.00
59767;BME280;46248;58.364;25.582;2023-03-26T07:33:14;98816.50;;;6.19;100.00
59767;BME280;46248;58.364;25.582;2023-03-26T07:36:42;98833.41;;;6.26;100.00
59767;BME280;46248;58.364;25.582;2023-03-26T07:40:16;98828.19;;;6.26;100.00
59767;BME280;46248;58.364;25.582;2023-03-26T07:43:52;98814.47;;;6.24;100.00
59767;BME280;46248;58.364;25.582;2023-03-26T07:47:22;98829.34;;;6.36;100.00
59767;BME280;46248;58.364;25.582;2023-03-26T07:50:46;98838.03;;;6.35;100.00
59767;BME280;46248;58.364;25.582;2023-03-26T07:54:09;98825.97;;;6.34;100.00
59767;BME280;46248;58.364;25.582;2023-03-26T07:57:38;98820.41;;;6.40;100.00
59767;BME280;46248;58.364;25.582;2023-03-26T08:01:09;98828.66;;;6.47;100.00
59767;BME280;46248;58.364;25.582;2023-03-26T08:04:43;98820.78;;;6.49;100.00
59767;BME280;46248;58.364;25.582;2023-03-26T08:08:14;98837.09;;;6.65;100.00
59767;BME280;46248;58.364;25.582;2023-03-26T08:11:44;98795.72;;;6.48;100.00
59767;BME280;46248;58.364;25.582;2023-03-26T08:15:12;98839.13;;;6.74;100.00
59767;BME280;46248;58.364;25.582;2023-03-26T08:18:46;98839.97;;;6.75;100.00
59767;BME280;46248;58.364;25.582;2023-03-26T08:22:15;98834.78;;;6.75;100.00
59767;BME280;46248;58.364;25.582;2023-03-26T08:25:47;98838.22;;;6.75;100.00
59767;BME280;46248;58.364;25.582;2023-03-26T08:29:17;98842.66;;;6.73;100.00
59767;BME280;46248;58.364;25.582;2023-03-26T08:32:41;98836.63;;;6.73;100.00
59767;BME280;46248;58.364;25.582;2023-03-26T08:36:05;98831.25;;;6.61;100.00
59767;BME280;46248;58.364;25.582;2023-03-26T08:39:27;98838.22;;;6.61;100.00
59767;BME280;46248;58.364;25.582;2023-03-26T08:43:24;98833.09;;;6.59;100.00
59767;BME280;46248;58.364;25.582;2023-03-26T08:50:54;98839.44;;;6.55;100.00
59767;BME280;46248;58.364;25.582;2023-03-26T08:54:42;98832.38;;;6.57;100.00
59767;BME280;46248;58.364;25.582;2023-03-26T08:58:34;98817.81;;;6.55;100.00
59767;BME280;46248;58.364;25.582;2023-03-26T09:14:15;98823.63;;;6.73;99.69
59767;BME280;46248;58.364;25.582;2023-03-26T09:22:11;98830.50;;;6.74;100.00
59767;BME280;46248;58.364;25.582;2023-03-26T09:25:54;98834.84;;;6.73;100.00
59767;BME280;46248;58.364;25.582;2023-03-26T09:33:50;98831.63;;;6.70;100.00
59767;BME280;46248;58.364;25.582;2023-03-26T09:37:17;98837.91;;;6.80;100.00
59767;BME280;46248;58.364;25.582;2023-03-26T09:40:52;98836.50;;;6.88;100.00
59767;BME280;46248;58.364;25.582;2023-03-26T09:45:11;98836.94;;;6.95;100.00
59767;BME280;46248;58.364;25.582;2023-03-26T09:49:08;98835.84;;;6.99;100.00
59767;BME280;46248;58.364;25.582;2023-03-26T09:52:57;98834.78;;;7.02;100.00
59767;BME280;46248;58.364;25.582;2023-03-26T09:56:28;98830.13;;;7.07;100.00
59767;BME280;46248;58.364;25.582;2023-03-26T10:00:02;98834.13;;;7.13;100.00
59767;BME280;46248;58.364;25.582;2023-03-26T10:03:37;98841.72;;;7.16;100.00
59767;BME280;46248;58.364;25.582;2023-03-26T10:07:07;98824.19;;;7.05;99.23
59767;BME280;46248;58.364;25.582;2023-03-26T10:10:42;98835.78;;;7.14;98.92
59767;BME280;46248;58.364;25.582;2023-03-26T10:14:17;98832.06;;;7.18;99.16
59767;BME280;46248;58.364;25.582;2023-03-26T10:17:48;98819.13;;;7.16;99.42
59767;BME280;46248;58.364;25.582;2023-03-26T10:21:20;98832.63;;;7.36;99.26
59767;BME280;46248;58.364;25.582;2023-03-26T10:25:05;98829.25;;;7.61;98.77
59767;BME280;46248;58.364;25.582;2023-03-26T10:28:44;98830.84;;;7.76;96.98
59767;BME280;46248;58.364;25.582;2023-03-26T10:32:17;98824.41;;;7.82;96.87
59767;BME280;46248;58.364;25.582;2023-03-26T10:35:50;98818.25;;;7.83;95.39
59767;BME280;46248;58.364;25.582;2023-03-26T10:39:27;98814.69;;;7.84;95.56
59767;BME280;46248;58.364;25.582;2023-03-26T10:43:21;98826.47;;;7.89;94.51
59767;BME280;46248;58.364;25.582;2023-03-26T10:54:23;98823.44;;;7.70;95.07
59767;BME280;46248;58.364;25.582;2023-03-26T10:57:49;98798.63;;;7.51;95.13
59767;BME280;46248;58.364;25.582;2023-03-26T11:01:21;98833.31;;;7.65;94.13
59767;BME280;46248;58.364;25.582;2023-03-26T11:04:49;98826.34;;;7.65;94.89
59767;BME280;46248;58.364;25.582;2023-03-26T11:08:20;98826.03;;;7.70;94.08
59767;BME280;46248;58.364;25.582;2023-03-26T11:11:55;98820.09;;;7.80;94.53
59767;BME280;46248;58.364;25.582;2023-03-26T11:15:23;98824.53;;;7.93;93.71
59767;BME280;46248;58.364;25.582;2023-03-26T11:18:52;98827.22;;;8.04;92.77
59767;BME280;46248;58.364;25.582;2023-03-26T11:22:26;98820.13;;;8.19;94.35
59767;BME280;46248;58.364;25.582;2023-03-26T11:26:06;98826.91;;;8.34;92.24
59767;BME280;46248;58.364;25.582;2023-03-26T11:29:43;98820.63;;;8.37;91.73
59767;BME280;46248;58.364;25.582;2023-03-26T11:33:10;98823.19;;;8.38;90.32
59767;BME280;46248;58.364;25.582;2023-03-26T11:36:39;98816.66;;;8.31;91.37
59767;BME280;46248;58.364;25.582;2023-03-26T11:40:11;98824.72;;;8.28;91.00
59767;BME280;46248;58.364;25.582;2023-03-26T11:43:35;98820.97;;;8.32;92.00
59767;BME280;46248;58.364;25.582;2023-03-26T11:47:02;98817.28;;;8.35;90.90
59767;BME280;46248;58.364;25.582;2023-03-26T11:50:26;98816.06;;;8.40;90.53
59767;BME280;46248;58.364;25.582;2023-03-26T11:53:53;98808.53;;;8.36;91.13
59767;BME280;46248;58.364;25.582;2023-03-26T11:57:20;98820.38;;;8.41;90.84
59767;BME280;46248;58.364;25.582;2023-03-26T12:00:43;98824.50;;;8.31;91.45
59767;BME280;46248;58.364;25.582;2023-03-26T12:04:09;98811.91;;;7.99;92.15
59767;BME280;46248;58.364;25.582;2023-03-26T12:07:34;98825.22;;;7.82;92.40
59767;BME280;46248;58.364;25.582;2023-03-26T12:11:03;98826.22;;;7.54;92.45
59767;BME280;46248;58.364;25.582;2023-03-26T12:14:28;98781.13;;;7.14;94.08
59767;BME280;46248;58.364;25.582;2023-03-26T12:17:52;98814.06;;;7.27;94.16
59767;BME280;46248;58.364;25.582;2023-03-26T12:21:18;98826.34;;;7.25;94.53
59767;BME280;46248;58.364;25.582;2023-03-26T12:24:40;98826.75;;;7.19;95.09
59767;BME280;46248;58.364;25.582;2023-03-26T12:28:15;98811.75;;;7.23;93.90
59767;BME280;46248;58.364;25.582;2023-03-26T12:31:48;98793.31;;;7.26;94.84
59767;BME280;46248;58.364;25.582;2023-03-26T12:35:14;98813.63;;;7.48;95.07
59767;BME280;46248;58.364;25.582;2023-03-26T12:38:39;98811.66;;;7.64;95.75
59767;BME280;46248;58.364;25.582;2023-03-26T12:42:02;98812.50;;;7.77;95.05
59767;BME280;46248;58.364;25.582;2023-03-26T12:45:52;98803.88;;;7.90;95.69
59767;BME280;46248;58.364;25.582;2023-03-26T12:49:34;98792.50;;;7.91;95.74
59767;BME280;46248;58.364;25.582;2023-03-26T12:53:10;98803.97;;;8.01;95.31
59767;BME280;46248;58.364;25.582;2023-03-26T12:56:39;98804.09;;;7.99;96.14
59767;BME280;46248;58.364;25.582;2023-03-26T13:00:24;98803.25;;;7.99;96.11
59767;BME280;46248;58.364;25.582;2023-03-26T13:04:04;98803.56;;;7.94;96.58
59767;BME280;46248;58.364;25.582;2023-03-26T13:07:39;98794.91;;;7.94;96.58
59767;BME280;46248;58.364;25.582;2023-03-26T13:11:10;98795.19;;;7.89;97.30
59767;BME280;46248;58.364;25.582;2023-03-26T13:14:50;98802.31;;;7.87;96.72
59767;BME280;46248;58.364;25.582;2023-03-26T13:18:23;98802.94;;;7.78;97.62
59767;BME280;46248;58.364;25.582;2023-03-26T13:22:00;98809.47;;;7.71;98.52
59767;BME280;46248;58.364;25.582;2023-03-26T13:25:30;98802.19;;;7.63;98.41
59767;BME280;46248;58.364;25.582;2023-03-26T13:29:02;98792.16;;;7.57;98.70
59767;BME280;46248;58.364;25.582;2023-03-26T13:32:36;98803.97;;;7.63;99.93
59767;BME280;46248;58.364;25.582;2023-03-26T13:36:09;98783.81;;;7.52;99.47
59767;BME280;46248;58.364;25.582;2023-03-26T13:39:55;98791.63;;;7.65;98.89
59767;BME280;46248;58.364;25.582;2023-03-26T13:43:36;98798.13;;;7.72;99.88
59767;BME280;46248;58.364;25.582;2023-03-26T13:47:06;98788.41;;;7.74;97.06
59767;BME280;46248;58.364;25.582;2023-03-26T13:50:33;98801.28;;;7.90;97.50
59767;BME280;46248;58.364;25.582;2023-03-26T13:54:01;98785.31;;;7.94;99.27
59767;BME280;46248;58.364;25.582;2023-03-26T13:57:31;98802.41;;;8.11;90.64
59767;BME280;46248;58.364;25.582;2023-03-26T14:01:03;98795.84;;;8.18;92.66
59767;BME280;46248;58.364;25.582;2023-03-26T14:04:28;98795.59;;;8.34;94.21
59767;BME280;46248;58.364;25.582;2023-03-26T14:07:54;98792.78;;;8.50;91.94
59767;BME280;46248;58.364;25.582;2023-03-26T14:11:30;98774.94;;;8.44;90.73
59767;BME280;46248;58.364;25.582;2023-03-26T14:14:58;98788.63;;;8.47;91.63
59767;BME280;46248;58.364;25.582;2023-03-26T14:18:30;98773.28;;;8.43;92.85
59767;BME280;46248;58.364;25.582;2023-03-26T14:22:02;98788.22;;;8.41;89.81
59767;BME280;46248;58.364;25.582;2023-03-26T14:25:44;98766.84;;;8.23;89.44
59767;BME280;46248;58.364;25.582;2023-03-26T14:33:01;98786.75;;;8.24;89.16
59767;BME280;46248;58.364;25.582;2023-03-26T14:36:42;98745.78;;;8.00;89.19
59767;BME280;46248;58.364;25.582;2023-03-26T14:40:36;98786.13;;;8.20;87.88
59767;BME280;46248;58.364;25.582;2023-03-26T14:44:30;98776.41;;;8.22;86.10
59767;BME280;46248;58.364;25.582;2023-03-26T14:48:28;98774.56;;;8.12;85.47
59767;BME280;46248;58.364;25.582;2023-03-26T14:51:59;98773.75;;;8.11;86.54
59767;BME280;46248;58.364;25.582;2023-03-26T14:55:49;98764.56;;;8.06;86.37
59767;BME280;46248;58.364;25.582;2023-03-26T15:08:31;98767.19;;;7.93;90.66
59767;BME280;46248;58.364;25.582;2023-03-26T15:12:07;98765.91;;;7.86;91.70
59767;BME280;46248;58.364;25.582;2023-03-26T15:15:49;98763.84;;;7.78;91.27
59767;BME280;46248;58.364;25.582;2023-03-26T15:20:05;98763.41;;;7.71;92.20
59767;BME280;46248;58.364;25.582;2023-03-26T15:27:48;98768.69;;;7.44;92.63
59767;BME280;46248;58.364;25.582;2023-03-26T15:31:48;98771.19;;;7.33;92.88
59767;BME280;46248;58.364;25.582;2023-03-26T15:35:34;98760.56;;;7.23;92.45
59767;BME280;46248;58.364;25.582;2023-03-26T15:39:39;98766.16;;;7.17;91.81
59767;BME280;46248;58.364;25.582;2023-03-26T15:43:21;98765.09;;;7.20;92.52
59767;BME280;46248;58.364;25.582;2023-03-26T15:46:55;98773.66;;;7.22;91.62
59767;BME280;46248;58.364;25.582;2023-03-26T15:50:29;98771.88;;;7.22;91.50
59767;BME280;46248;58.364;25.582;2023-03-26T15:53:55;98764.47;;;7.16;92.93
59767;BME280;46248;58.364;25.582;2023-03-26T15:57:25;98779.88;;;7.19;93.24
59767;BME280;46248;58.364;25.582;2023-03-26T16:00:55;98779.09;;;7.04;93.50
59767;BME280;46248;58.364;25.582;2023-03-26T16:04:37;98774.28;;;6.98;93.50
59767;BME280;46248;58.364;25.582;2023-03-26T16:08:16;98771.56;;;6.87;93.68
59767;BME280;46248;58.364;25.582;2023-03-26T16:11:49;98766.41;;;6.73;92.16
59767;BME280;46248;58.364;25.582;2023-03-26T16:15:24;98771.59;;;6.73;92.43
59767;BME280;46248;58.364;25.582;2023-03-26T16:18:52;98774.47;;;6.68;92.09
59767;BME280;46248;58.364;25.582;2023-03-26T16:22:44;98775.81;;;6.61;92.03
59767;BME280;46248;58.364;25.582;2023-03-26T16:26:18;98784.06;;;6.53;92.61
59767;BME280;46248;58.364;25.582;2023-03-26T16:30:07;98783.56;;;6.48;91.92
59767;BME280;46248;58.364;25.582;2023-03-26T16:33:36;98783.94;;;6.42;92.26
59767;BME280;46248;58.364;25.582;2023-03-26T16:37:04;98774.09;;;6.33;92.98
59767;BME280;46248;58.364;25.582;2023-03-26T16:40:33;98783.63;;;6.32;93.65
59767;BME280;46248;58.364;25.582;2023-03-26T16:44:07;98767.97;;;6.19;93.19
59767;BME280;46248;58.364;25.582;2023-03-26T16:47:36;98775.56;;;6.23;93.36
59767;BME280;46248;58.364;25.582;2023-03-26T16:51:07;98788.94;;;6.16;94.09
59767;BME280;46248;58.364;25.582;2023-03-26T16:54:49;98786.44;;;6.15;94.94
59767;BME280;46248;58.364;25.582;2023-03-26T16:58:19;98773.09;;;6.07;95.37
59767;BME280;46248;58.364;25.582;2023-03-26T17:01:54;98784.31;;;6.07;94.96
59767;BME280;46248;58.364;25.582;2023-03-26T17:05:24;98792.22;;;6.06;95.23
59767;BME280;46248;58.364;25.582;2023-03-26T17:09:00;98787.28;;;6.01;95.77
59767;BME280;46248;58.364;25.582;2023-03-26T17:12:31;98780.50;;;5.99;95.68
59767;BME280;46248;58.364;25.582;2023-03-26T17:16:00;98767.94;;;5.91;95.46
59767;BME280;46248;58.364;25.582;2023-03-26T17:19:32;98785.63;;;6.00;95.40
59767;BME280;46248;58.364;25.582;2023-03-26T17:23:04;98769.91;;;5.87;95.78
59767;BME280;46248;58.364;25.582;2023-03-26T17:26:38;98783.19;;;5.97;96.16
59767;BME280;46248;58.364;25.582;2023-03-26T17:30:29;98780.84;;;5.92;96.25
59767;BME280;46248;58.364;25.582;2023-03-26T17:42:17;98795.00;;;5.87;97.19
59767;BME280;46248;58.364;25.582;2023-03-26T17:45:42;98789.00;;;5.86;97.80
59767;BME280;46248;58.364;25.582;2023-03-26T17:49:26;98792.53;;;5.85;98.57
59767;BME280;46248;58.364;25.582;2023-03-26T17:52:54;98789.00;;;5.86;99.44
59767;BME280;46248;58.364;25.582;2023-03-26T17:56:24;98790.75;;;5.86;99.76
59767;BME280;46248;58.364;25.582;2023-03-26T17:59:49;98791.59;;;5.86;100.00
59767;BME280;46248;58.364;25.582;2023-03-26T18:03:18;98787.41;;;5.84;100.00
59767;BME280;46248;58.364;25.582;2023-03-26T18:07:03;98750.41;;;5.66;100.00
59767;BME280;46248;58.364;25.582;2023-03-26T18:10:40;98795.00;;;5.87;100.00
59767;BME280;46248;58.364;25.582;2023-03-26T18:14:22;98791.69;;;5.85;100.00
59767;BME280;46248;58.364;25.582;2023-03-26T18:17:48;98787.50;;;5.82;100.00
59767;BME280;46248;58.364;25.582;2023-03-26T18:21:18;98798.56;;;5.86;100.00
59767;BME280;46248;58.364;25.582;2023-03-26T18:28:10;98787.59;;;5.81;100.00
59767;BME280;46248;58.364;25.582;2023-03-26T18:31:39;98790.09;;;5.82;100.00
59767;BME280;46248;58.364;25.582;2023-03-26T18:35:13;98779.97;;;5.78;100.00
59767;BME280;46248;58.364;25.582;2023-03-26T18:38:39;98778.13;;;5.80;100.00
59767;BME280;46248;58.364;25.582;2023-03-26T18:42:02;98773.06;;;5.78;100.00
59767;BME280;46248;58.364;25.582;2023-03-26T18:45:27;98772.28;;;5.76;100.00
59767;BME280;46248;58.364;25.582;2023-03-26T18:48:50;98779.34;;;5.74;100.00
59767;BME280;46248;58.364;25.582;2023-03-26T18:52:16;98771.66;;;5.72;100.00
59767;BME280;46248;58.364;25.582;2023-03-26T18:55:40;98734.22;;;5.46;100.00
59767;BME280;46248;58.364;25.582;2023-03-26T18:59:05;98755.28;;;5.56;100.00
59767;BME280;46248;58.364;25.582;2023-03-26T19:02:28;98772.09;;;5.65;100.00
59767;BME280;46248;58.364;25.582;2023-03-26T19:05:51;98768.91;;;5.60;100.00
59767;BME280;46248;58.364;25.582;2023-03-26T19:09:14;98767.25;;;5.59;100.00
59767;BME280;46248;58.364;25.582;2023-03-26T19:12:57;98765.59;;;5.58;100.00
59767;BME280;46248;58.364;25.582;2023-03-26T19:16:23;98764.75;;;5.57;100.00
59767;BME280;46248;58.364;25.582;2023-03-26T19:19:48;98760.47;;;5.56;100.00
59767;BME280;46248;58.364;25.582;2023-03-26T19:23:18;98763.91;;;5.57;100.00
59767;BME280;46248;58.364;25.582;2023-03-26T19:26:57;98761.31;;;5.57;100.00
59767;BME280;46248;58.364;25.582;2023-03-26T19:30:27;98756.97;;;5.57;100.00